sensor_id;sensor_type;location;lat;lon;timestamp;pressure;altitude;pressure_sealevel;temperature;humidity
47815;BME280;33579;50.058;18.130;2024-03-06T00:00:31;99415.47;;;4.17;100.00
47815;BME280;33579;50.058;18.130;2024-03-06T00:01:33;99410.00;;;4.05;100.00
47815;BME280;33579;50.058;18.130;2024-03-06T00:02:35;99411.53;;;4.10;100.00
47815;BME280;33579;50.058;18.130;2024-03-06T00:03:37;99422.22;;;4.05;100.00
47815;BME280;33579;50.058;18.130;2024-03-06T00:04:39;99417.50;;;4.12;100.00
47815;BME280;33579;50.058;18.130;2024-03-06T00:05:40;99420.50;;;4.20;100.00
47815;BME280;33579;50.058;18.130;2024-03-06T00:06:42;99421.63;;;4.30;100.00
47815;BME280;33579;50.058;18.130;2024-03-06T00:07:44;99417.28;;;4.31;100.00
47815;BME280;33579;50.058;18.130;2024-03-06T00:08:45;99416.44;;;4.30;100.00
47815;BME280;33579;50.058;18.130;2024-03-06T00:09:47;99420.72;;;4.31;100.00
47815;BME280;33579;50.058;18.130;2024-03-06T00:10:49;99425.03;;;4.32;100.00
47815;BME280;33579;50.058;18.130;2024-03-06T00:11:51;99419.22;;;4.27;100.00
47815;BME280;33579;50.058;18.130;2024-03-06T00:12:53;99419.69;;;4.34;100.00
47815;BME280;33579;50.058;18.130;2024-03-06T00:13:55;99423.50;;;4.28;100.00
47815;BME280;33579;50.058;18.130;2024-03-06T00:14:56;99418.28;;;4.28;100.00
47815;BME280;33579;50.058;18.130;2024-03-06T00:15:58;99425.03;;;4.32;100.00
47815;BME280;33579;50.058;18.130;2024-03-06T00:17:00;99425.41;;;4.41;100.00
47815;BME280;33579;50.058;18.130;2024-03-06T00:18:02;99425.81;;;4.49;100.00
47815;BME280;33579;50.058;18.130;2024-03-06T00:19:04;99428.97;;;4.54;100.00
47815;BME280;33579;50.058;18.130;2024-03-06T00:20:07;99427.88;;;4.58;100.00
47815;BME280;33579;50.058;18.130;2024-03-06T00:21:08;99434.91;;;4.56;100.00
47815;BME280;33579;50.058;18.130;2024-03-06T00:22:10;99440.13;;;4.56;100.00
47815;BME280;33579;50.058;18.130;2024-03-06T00:23:12;99431.31;;;4.59;100.00
47815;BME280;33579;50.058;18.130;2024-03-06T00:24:15;99441.00;;;4.57;100.00
47815;BME280;33579;50.058;18.130;2024-03-06T00:25:17;99433.91;;;4.59;100.00
47815;BME280;33579;50.058;18.130;2024-03-06T00:26:19;99441.66;;;4.60;100.00
47815;BME280;33579;50.058;18.130;2024-03-06T00:27:20;99444.53;;;4.56;100.00
47815;BME280;33579;50.058;18.130;2024-03-06T00:28:22;99441.91;;;4.56;100.00
47815;BME280;33579;50.058;18.130;2024-03-06T00:29:24;99437.38;;;4.59;100.00
47815;BME280;33579;50.058;18.130;2024-03-06T00:30:26;99442.75;;;4.56;100.00
47815;BME280;33579;50.058;18.130;2024-03-06T00:31:27;99441.00;;;4.57;100.00
47815;BME280;33579;50.058;18.130;2024-03-06T00:32:29;99443.59;;;4.57;100.00
47815;BME280;33579;50.058;18.130;2024-03-06T00:33:31;99443.31;;;4.61;100.00
47815;BME280;33579;50.058;18.130;2024-03-06T00:34:32;99442.31;;;4.64;100.00
47815;BME280;33579;50.058;18.130;2024-03-06T00:35:34;99446.59;;;4.65;100.00
47815;BME280;33579;50.058;18.130;2024-03-06T00:36:37;99444.00;;;4.65;100.00
47815;BME280;33579;50.058;18.130;2024-03-06T00:37:38;99449.03;;;4.68;100.00
47815;BME280;33579;50.058;18.130;2024-03-06T00:38:40;99449.03;;;4.68;100.00
47815;BME280;33579;50.058;18.130;2024-03-06T00:39:42;99446.34;;;4.70;100.00
47815;BME280;33579;50.058;18.130;2024-03-06T00:40:44;99452.38;;;4.70;100.00
47815;BME280;33579;50.058;18.130;2024-03-06T00:41:46;99450.22;;;4.62;100.00
47815;BME280;33579;50.058;18.130;2024-03-06T00:42:48;99459.16;;;4.58;100.00
47815;BME280;33579;50.058;18.130;2024-03-06T00:43:50;99458.97;;;4.61;100.00
47815;BME280;33579;50.058;18.130;2024-03-06T00:44:51;99455.63;;;4.59;100.00
47815;BME280;33579;50.058;18.130;2024-03-06T00:45:53;99459.22;;;4.57;100.00
47815;BME280;33579;50.058;18.130;2024-03-06T00:46:55;99459.97;;;4.59;100.00
47815;BME280;33579;50.058;18.130;2024-03-06T00:47:57;99453.16;;;4.56;100.00
47815;BME280;33579;50.058;18.130;2024-03-06T00:48:59;99456.81;;;4.54;100.00
47815;BME280;33579;50.058;18.130;2024-03-06T00:50:01;99456.97;;;4.50;100.00
47815;BME280;33579;50.058;18.130;2024-03-06T00:51:03;99461.16;;;4.53;100.00
47815;BME280;33579;50.058;18.130;2024-03-06T00:52:05;99461.91;;;4.55;100.00
47815;BME280;33579;50.058;18.130;2024-03-06T00:53:06;99459.16;;;4.58;100.00
47815;BME280;33579;50.058;18.130;2024-03-06T00:54:08;99466.78;;;4.61;100.00
47815;BME280;33579;50.058;18.130;2024-03-06T00:55:10;99463.16;;;4.64;100.00
47815;BME280;33579;50.058;18.130;2024-03-06T00:56:12;99467.53;;;4.63;100.00
47815;BME280;33579;50.058;18.130;2024-03-06T00:57:14;99466.53;;;4.66;100.00
47815;BME280;33579;50.058;18.130;2024-03-06T00:58:15;99464.72;;;4.67;100.00
47815;BME280;33579;50.058;18.130;2024-03-06T00:59:17;99463.91;;;4.66;100.00
47815;BME280;33579;50.058;18.130;2024-03-06T01:00:19;99471.25;;;4.59;100.00
47815;BME280;33579;50.058;18.130;2024-03-06T01:01:21;99467.31;;;4.52;100.00
47815;BME280;33579;50.058;18.130;2024-03-06T01:02:23;99463.09;;;4.49;100.00
47815;BME280;33579;50.058;18.130;2024-03-06T01:03:25;99462.53;;;4.44;100.00
47815;BME280;33579;50.058;18.130;2024-03-06T01:04:27;99459.09;;;4.44;100.00
47815;BME280;33579;50.058;18.130;2024-03-06T01:05:28;99462.47;;;4.46;100.00
47815;BME280;33579;50.058;18.130;2024-03-06T01:06:30;99464.78;;;4.50;100.00
47815;BME280;33579;50.058;18.130;2024-03-06T01:07:33;99462.94;;;4.53;100.00
47815;BME280;33579;50.058;18.130;2024-03-06T01:08:35;99462.47;;;4.46;100.00
47815;BME280;33579;50.058;18.130;2024-03-06T01:09:37;99463.28;;;4.46;100.00
47815;BME280;33579;50.058;18.130;2024-03-06T01:10:38;99464.78;;;4.50;100.00
47815;BME280;33579;50.058;18.130;2024-03-06T01:11:40;99460.59;;;4.48;100.00
47815;BME280;33579;50.058;18.130;2024-03-06T01:12:42;99460.50;;;4.49;100.00
47815;BME280;33579;50.058;18.130;2024-03-06T01:13:44;99460.69;;;4.46;100.00
47815;BME280;33579;50.058;18.130;2024-03-06T01:14:45;99459.75;;;4.47;100.00
47815;BME280;33579;50.058;18.130;2024-03-06T01:15:47;99464.88;;;4.49;100.00
47815;BME280;33579;50.058;18.130;2024-03-06T01:16:49;99463.22;;;4.48;100.00
47815;BME280;33579;50.058;18.130;2024-03-06T01:17:51;99465.63;;;4.51;100.00
47815;BME280;33579;50.058;18.130;2024-03-06T01:18:52;99472.44;;;4.54;100.00
47815;BME280;33579;50.058;18.130;2024-03-06T01:19:54;99464.69;;;4.52;100.00
47815;BME280;33579;50.058;18.130;2024-03-06T01:20:56;99470.09;;;4.49;100.00
47815;BME280;33579;50.058;18.130;2024-03-06T01:21:58;99466.56;;;4.50;100.00
47815;BME280;33579;50.058;18.130;2024-03-06T01:22:59;99471.50;;;4.55;100.00
47815;BME280;33579;50.058;18.130;2024-03-06T01:24:01;99472.34;;;4.55;100.00
47815;BME280;33579;50.058;18.130;2024-03-06T01:25:04;99474.84;;;4.57;100.00
47815;BME280;33579;50.058;18.130;2024-03-06T01:26:05;99469.34;;;4.47;100.00
47815;BME280;33579;50.058;18.130;2024-03-06T01:27:08;99468.41;;;4.48;100.00
47815;BME280;33579;50.058;18.130;2024-03-06T01:28:10;99473.53;;;4.49;100.00
47815;BME280;33579;50.058;18.130;2024-03-06T01:29:11;99476.06;;;4.51;100.00
47815;BME280;33579;50.058;18.130;2024-03-06T01:30:13;99468.91;;;4.55;100.00
47815;BME280;33579;50.058;18.130;2024-03-06T01:31:15;99467.50;;;4.49;100.00
47815;BME280;33579;50.058;18.130;2024-03-06T01:32:17;99474.56;;;4.47;100.00
47815;BME280;33579;50.058;18.130;2024-03-06T01:33:19;99476.22;;;4.48;100.00
47815;BME280;33579;50.058;18.130;2024-03-06T01:34:21;99474.38;;;4.50;100.00
47815;BME280;33579;50.058;18.130;2024-03-06T01:35:23;99474.94;;;4.55;100.00
47815;BME280;33579;50.058;18.130;2024-03-06T01:36:25;99476.63;;;4.56;100.00
47815;BME280;33579;50.058;18.130;2024-03-06T01:37:27;99472.59;;;4.50;100.00
47815;BME280;33579;50.058;18.130;2024-03-06T01:38:29;99466.59;;;4.34;100.00
47815;BME280;33579;50.058;18.130;2024-03-06T01:39:31;99481.97;;;4.22;100.00
47815;BME280;33579;50.058;18.130;2024-03-06T01:40:33;99473.41;;;4.20;100.00
47815;BME280;33579;50.058;18.130;2024-03-06T01:41:35;99467.09;;;4.25;100.00
47815;BME280;33579;50.058;18.130;2024-03-06T01:42:37;99466.72;;;4.16;100.00
47815;BME280;33579;50.058;18.130;2024-03-06T01:43:39;99474.34;;;4.19;100.00
47815;BME280;33579;50.058;18.130;2024-03-06T01:44:40;99472.59;;;4.20;100.00
47815;BME280;33579;50.058;18.130;2024-03-06T01:45:42;99472.22;;;4.26;100.00
47815;BME280;33579;50.058;18.130;2024-03-06T01:46:45;99478.69;;;4.35;100.00
47815;BME280;33579;50.058;18.130;2024-03-06T01:47:47;99479.44;;;4.37;100.00
47815;BME280;33579;50.058;18.130;2024-03-06T01:48:49;99479.19;;;4.42;100.00
47815;BME280;33579;50.058;18.130;2024-03-06T01:49:51;99482.53;;;4.44;100.00
47815;BME280;33579;50.058;18.130;2024-03-06T01:50:55;99475.75;;;4.41;100.00
47815;BME280;33579;50.058;18.130;2024-03-06T01:51:58;99475.63;;;4.43;100.00
47815;BME280;33579;50.058;18.130;2024-03-06T01:53:00;99477.06;;;4.48;100.00
47815;BME280;33579;50.058;18.130;2024-03-06T01:54:03;99486.56;;;4.49;100.00
47815;BME280;33579;50.058;18.130;2024-03-06T01:55:07;99477.66;;;4.54;100.00
47815;BME280;33579;50.058;18.130;2024-03-06T01:56:09;99483.53;;;4.57;100.00
47815;BME280;33579;50.058;18.130;2024-03-06T01:57:11;99488.44;;;4.62;100.00
47815;BME280;33579;50.058;18.130;2024-03-06T01:58:14;99485.59;;;4.67;100.00
47815;BME280;33579;50.058;18.130;2024-03-06T01:59:16;99491.47;;;4.70;100.00
47815;BME280;33579;50.058;18.130;2024-03-06T02:00:32;99492.13;;;4.74;100.00
47815;BME280;33579;50.058;18.130;2024-03-06T02:01:35;99489.25;;;4.78;100.00
47815;BME280;33579;50.058;18.130;2024-03-06T02:02:37;99489.25;;;4.78;100.00
47815;BME280;33579;50.058;18.130;2024-03-06T02:03:39;99493.44;;;4.81;100.00
47815;BME280;33579;50.058;18.130;2024-03-06T02:04:41;99495.16;;;4.82;100.00
47815;BME280;33579;50.058;18.130;2024-03-06T02:05:43;99489.81;;;4.84;100.00
47815;BME280;33579;50.058;18.130;2024-03-06T02:06:45;99496.81;;;4.83;100.00
47815;BME280;33579;50.058;18.130;2024-03-06T02:07:47;99490.50;;;4.87;100.00
47815;BME280;33579;50.058;18.130;2024-03-06T02:08:50;99481.53;;;4.91;100.00
47815;BME280;33579;50.058;18.130;2024-03-06T02:09:52;99483.34;;;4.91;100.00
47815;BME280;33579;50.058;18.130;2024-03-06T02:10:54;99484.25;;;4.90;100.00
47815;BME280;33579;50.058;18.130;2024-03-06T02:11:56;99484.34;;;4.88;100.00
47815;BME280;33579;50.058;18.130;2024-03-06T02:12:58;99477.44;;;4.87;100.00
47815;BME280;33579;50.058;18.130;2024-03-06T02:14:00;99485.19;;;4.89;100.00
47815;BME280;33579;50.058;18.130;2024-03-06T02:15:01;99474.66;;;4.90;100.00
47815;BME280;33579;50.058;18.130;2024-03-06T02:16:03;99483.22;;;4.92;100.00
47815;BME280;33579;50.058;18.130;2024-03-06T02:17:05;99478.66;;;4.96;100.00
47815;BME280;33579;50.058;18.130;2024-03-06T02:18:07;99478.66;;;4.96;100.00
47815;BME280;33579;50.058;18.130;2024-03-06T02:19:09;99482.03;;;4.98;100.00
47815;BME280;33579;50.058;18.130;2024-03-06T02:20:12;99479.53;;;4.97;100.00
47815;BME280;33579;50.058;18.130;2024-03-06T02:21:14;99478.59;;;4.98;100.00
47815;BME280;33579;50.058;18.130;2024-03-06T02:22:16;99484.53;;;5.00;100.00
47815;BME280;33579;50.058;18.130;2024-03-06T02:23:17;99480.19;;;5.00;100.00
47815;BME280;33579;50.058;18.130;2024-03-06T02:24:19;99481.09;;;4.99;100.00
47815;BME280;33579;50.058;18.130;2024-03-06T02:25:21;99487.63;;;4.92;100.00
47815;BME280;33579;50.058;18.130;2024-03-06T02:26:23;99483.59;;;4.86;100.00
47815;BME280;33579;50.058;18.130;2024-03-06T02:27:24;99477.53;;;4.86;100.00
47815;BME280;33579;50.058;18.130;2024-03-06T02:28:26;99483.59;;;4.86;100.00
47815;BME280;33579;50.058;18.130;2024-03-06T02:29:28;99482.84;;;4.84;100.00
47815;BME280;33579;50.058;18.130;2024-03-06T02:30:30;99482.19;;;4.81;100.00
47815;BME280;33579;50.058;18.130;2024-03-06T02:31:32;99473.44;;;4.82;100.00
47815;BME280;33579;50.058;18.130;2024-03-06T02:32:34;99472.97;;;4.89;100.00
47815;BME280;33579;50.058;18.130;2024-03-06T02:33:35;99478.00;;;4.92;100.00
47815;BME280;33579;50.058;18.130;2024-03-06T02:34:37;99470.19;;;4.92;100.00
47815;BME280;33579;50.058;18.130;2024-03-06T02:35:39;99472.22;;;4.87;100.00
47815;BME280;33579;50.058;18.130;2024-03-06T02:36:41;99476.78;;;4.84;100.00
47815;BME280;33579;50.058;18.130;2024-03-06T02:37:43;99474.75;;;4.89;100.00
47815;BME280;33579;50.058;18.130;2024-03-06T02:38:45;99477.63;;;4.84;100.00
47815;BME280;33579;50.058;18.130;2024-03-06T02:39:47;99477.25;;;4.76;100.00
47815;BME280;33579;50.058;18.130;2024-03-06T02:40:49;99476.56;;;4.72;100.00
47815;BME280;33579;50.058;18.130;2024-03-06T02:41:51;99476.31;;;4.77;100.00
47815;BME280;33579;50.058;18.130;2024-03-06T02:42:53;99474.81;;;4.73;100.00
47815;BME280;33579;50.058;18.130;2024-03-06T02:43:55;99475.09;;;4.68;100.00
47815;BME280;33579;50.058;18.130;2024-03-06T02:44:57;99473.28;;;4.69;100.00
47815;BME280;33579;50.058;18.130;2024-03-06T02:45:59;99476.94;;;4.66;100.00
47815;BME280;33579;50.058;18.130;2024-03-06T02:47:00;99483.91;;;4.66;100.00
47815;BME280;33579;50.058;18.130;2024-03-06T02:48:02;99476.69;;;4.71;100.00
47815;BME280;33579;50.058;18.130;2024-03-06T02:49:04;99478.16;;;4.75;100.00
47815;BME280;33579;50.058;18.130;2024-03-06T02:50:07;99478.25;;;4.73;100.00
47815;BME280;33579;50.058;18.130;2024-03-06T02:51:09;99474.63;;;4.76;100.00
47815;BME280;33579;50.058;18.130;2024-03-06T02:52:11;99478.72;;;4.80;100.00
47815;BME280;33579;50.058;18.130;2024-03-06T02:53:13;99479.66;;;4.79;100.00
47815;BME280;33579;50.058;18.130;2024-03-06T02:54:15;99478.25;;;4.73;100.00
47815;BME280;33579;50.058;18.130;2024-03-06T02:55:17;99477.06;;;4.79;100.00
47815;BME280;33579;50.058;18.130;2024-03-06T02:56:19;99470.91;;;4.80;100.00
47815;BME280;33579;50.058;18.130;2024-03-06T02:57:21;99475.97;;;4.83;100.00
47815;BME280;33579;50.058;18.130;2024-03-06T02:58:23;99481.25;;;4.82;100.00
47815;BME280;33579;50.058;18.130;2024-03-06T02:59:24;99475.19;;;4.81;100.00
47815;BME280;33579;50.058;18.130;2024-03-06T03:00:26;99479.75;;;4.77;100.00
47815;BME280;33579;50.058;18.130;2024-03-06T03:01:29;99474.44;;;4.79;100.00
47815;BME280;33579;50.058;18.130;2024-03-06T03:02:31;99467.28;;;4.83;100.00
47815;BME280;33579;50.058;18.130;2024-03-06T03:03:33;99464.41;;;4.87;100.00
47815;BME280;33579;50.058;18.130;2024-03-06T03:04:35;99466.94;;;4.89;100.00
47815;BME280;33579;50.058;18.130;2024-03-06T03:05:37;99471.97;;;4.92;100.00
47815;BME280;33579;50.058;18.130;2024-03-06T03:06:39;99465.56;;;4.98;100.00
47815;BME280;33579;50.058;18.130;2024-03-06T03:07:41;99466.28;;;5.00;100.00
47815;BME280;33579;50.058;18.130;2024-03-06T03:08:43;99462.28;;;4.94;100.00
47815;BME280;33579;50.058;18.130;2024-03-06T03:09:45;99466.09;;;4.88;100.00
47815;BME280;33579;50.058;18.130;2024-03-06T03:10:47;99462.16;;;4.81;100.00
47815;BME280;33579;50.058;18.130;2024-03-06T03:11:49;99460.00;;;4.73;100.00
47815;BME280;33579;50.058;18.130;2024-03-06T03:12:51;99458.75;;;4.50;100.00
47815;BME280;33579;50.058;18.130;2024-03-06T03:13:53;99455.91;;;4.39;100.00
47815;BME280;33579;50.058;18.130;2024-03-06T03:14:55;99455.06;;;4.38;100.00
47815;BME280;33579;50.058;18.130;2024-03-06T03:15:56;99456.66;;;4.41;100.00
47815;BME280;33579;50.058;18.130;2024-03-06T03:17:00;99459.38;;;4.39;100.00
47815;BME280;33579;50.058;18.130;2024-03-06T03:18:02;99463.41;;;4.29;100.00
47815;BME280;33579;50.058;18.130;2024-03-06T03:19:04;99458.97;;;4.31;100.00
47815;BME280;33579;50.058;18.130;2024-03-06T03:20:06;99461.38;;;4.34;100.00
47815;BME280;33579;50.058;18.130;2024-03-06T03:21:09;99458.09;;;4.30;100.00
47815;BME280;33579;50.058;18.130;2024-03-06T03:22:10;99459.78;;;4.31;100.00
47815;BME280;33579;50.058;18.130;2024-03-06T03:23:12;99462.25;;;4.18;100.00
47815;BME280;33579;50.058;18.130;2024-03-06T03:24:14;99458.66;;;4.21;100.00
47815;BME280;33579;50.058;18.130;2024-03-06T03:25:16;99464.84;;;4.18;100.00
47815;BME280;33579;50.058;18.130;2024-03-06T03:26:18;99467.38;;;4.20;100.00
47815;BME280;33579;50.058;18.130;2024-03-06T03:27:20;99469.06;;;4.21;100.00
47815;BME280;33579;50.058;18.130;2024-03-06T03:28:21;99469.22;;;4.18;100.00
47815;BME280;33579;50.058;18.130;2024-03-06T03:29:23;99465.59;;;4.20;100.00
47815;BME280;33579;50.058;18.130;2024-03-06T03:30:25;99469.81;;;4.23;100.00
47815;BME280;33579;50.058;18.130;2024-03-06T03:31:26;99470.38;;;4.28;100.00
47815;BME280;33579;50.058;18.130;2024-03-06T03:32:28;99473.16;;;4.25;100.00
47815;BME280;33579;50.058;18.130;2024-03-06T03:33:30;99470.63;;;4.24;100.00
47815;BME280;33579;50.058;18.130;2024-03-06T03:34:34;99470.63;;;4.24;100.00
47815;BME280;33579;50.058;18.130;2024-03-06T03:35:36;99472.31;;;4.25;100.00
47815;BME280;33579;50.058;18.130;2024-03-06T03:36:41;99472.41;;;4.23;100.00
47815;BME280;33579;50.058;18.130;2024-03-06T03:37:43;99477.63;;;4.23;100.00
47815;BME280;33579;50.058;18.130;2024-03-06T03:38:47;99472.50;;;4.21;100.00
47815;BME280;33579;50.058;18.130;2024-03-06T03:39:49;99474.41;;;4.18;100.00
47815;BME280;33579;50.058;18.130;2024-03-06T03:40:51;99478.13;;;4.14;100.00
47815;BME280;33579;50.058;18.130;2024-03-06T03:41:53;99473.50;;;4.19;100.00
47815;BME280;33579;50.058;18.130;2024-03-06T03:42:55;99480.13;;;4.25;100.00
47815;BME280;33579;50.058;18.130;2024-03-06T03:43:56;99485.09;;;4.29;100.00
47815;BME280;33579;50.058;18.130;2024-03-06T03:44:58;99489.97;;;4.19;100.00
47815;BME280;33579;50.058;18.130;2024-03-06T03:46:00;99489.81;;;4.06;100.00
47815;BME280;33579;50.058;18.130;2024-03-06T03:47:01;99489.66;;;3.93;100.00
47815;BME280;33579;50.058;18.130;2024-03-06T03:48:04;99489.66;;;3.93;100.00
47815;BME280;33579;50.058;18.130;2024-03-06T03:49:06;99489.47;;;3.97;100.00
47815;BME280;33579;50.058;18.130;2024-03-06T03:50:08;99487.28;;;3.89;100.00
47815;BME280;33579;50.058;18.130;2024-03-06T03:51:12;99492.06;;;3.80;100.00
47815;BME280;33579;50.058;18.130;2024-03-06T03:52:14;99489.47;;;3.80;100.00
47815;BME280;33579;50.058;18.130;2024-03-06T03:53:15;99491.56;;;3.90;100.00
47815;BME280;33579;50.058;18.130;2024-03-06T03:54:17;99486.81;;;3.98;100.00
47815;BME280;33579;50.058;18.130;2024-03-06T03:55:19;99489.91;;;4.05;100.00
47815;BME280;33579;50.058;18.130;2024-03-06T03:56:21;99491.41;;;4.09;100.00
47815;BME280;33579;50.058;18.130;2024-03-06T03:57:23;99491.91;;;4.16;100.00
47815;BME280;33579;50.058;18.130;2024-03-06T03:58:24;99496.78;;;4.22;100.00
47815;BME280;33579;50.058;18.130;2024-03-06T03:59:26;99501.88;;;4.24;100.00
47815;BME280;33579;50.058;18.130;2024-03-06T04:00:28;99492.22;;;4.26;100.00
47815;BME280;33579;50.058;18.130;2024-03-06T04:01:30;99498.03;;;4.31;100.00
47815;BME280;33579;50.058;18.130;2024-03-06T04:02:32;99493.38;;;4.36;100.00
47815;BME280;33579;50.058;18.130;2024-03-06T04:03:33;99488.84;;;4.40;100.00
47815;BME280;33579;50.058;18.130;2024-03-06T04:04:35;99493.00;;;4.28;100.00
47815;BME280;33579;50.058;18.130;2024-03-06T04:05:37;99497.53;;;4.24;100.00
47815;BME280;33579;50.058;18.130;2024-03-06T04:06:39;99499.03;;;4.28;100.00
47815;BME280;33579;50.058;18.130;2024-03-06T04:07:40;99497.09;;;4.32;100.00
47815;BME280;33579;50.058;18.130;2024-03-06T04:08:42;99503.72;;;4.38;100.00
47815;BME280;33579;50.058;18.130;2024-03-06T04:09:44;99504.41;;;4.41;100.00
47815;BME280;33579;50.058;18.130;2024-03-06T04:10:46;99507.50;;;4.48;100.00
47815;BME280;33579;50.058;18.130;2024-03-06T04:11:48;99507.56;;;4.46;100.00
47815;BME280;33579;50.058;18.130;2024-03-06T04:12:50;99504.72;;;4.51;100.00
47815;BME280;33579;50.058;18.130;2024-03-06T04:13:52;99505.28;;;4.56;100.00
47815;BME280;33579;50.058;18.130;2024-03-06T04:14:53;99503.44;;;4.58;100.00
47815;BME280;33579;50.058;18.130;2024-03-06T04:15:55;99498.06;;;4.61;100.00
47815;BME280;33579;50.058;18.130;2024-03-06T04:16:57;99504.28;;;4.59;100.00
47815;BME280;33579;50.058;18.130;2024-03-06T04:17:59;99500.00;;;4.58;100.00
47815;BME280;33579;50.058;18.130;2024-03-06T04:19:01;99490.25;;;4.61;100.00
47815;BME280;33579;50.058;18.130;2024-03-06T04:20:03;99495.44;;;4.61;100.00
47815;BME280;33579;50.058;18.130;2024-03-06T04:21:06;99490.25;;;4.61;100.00
47815;BME280;33579;50.058;18.130;2024-03-06T04:22:08;99491.16;;;4.60;100.00
47815;BME280;33579;50.058;18.130;2024-03-06T04:23:09;99500.72;;;4.60;100.00
47815;BME280;33579;50.058;18.130;2024-03-06T04:24:11;99499.81;;;4.61;100.00
47815;BME280;33579;50.058;18.130;2024-03-06T04:25:13;99497.88;;;4.64;100.00
47815;BME280;33579;50.058;18.130;2024-03-06T04:26:15;99509.91;;;4.67;100.00
47815;BME280;33579;50.058;18.130;2024-03-06T04:27:17;99500.41;;;4.66;100.00
47815;BME280;33579;50.058;18.130;2024-03-06T04:28:18;99514.09;;;4.70;100.00
47815;BME280;33579;50.058;18.130;2024-03-06T04:29:20;99513.00;;;4.74;100.00
47815;BME280;33579;50.058;18.130;2024-03-06T04:30:22;99509.38;;;4.76;100.00
47815;BME280;33579;50.058;18.130;2024-03-06T04:31:24;99506.00;;;4.74;100.00
47815;BME280;33579;50.058;18.130;2024-03-06T04:32:26;99508.78;;;4.71;100.00
47815;BME280;33579;50.058;18.130;2024-03-06T04:33:28;99503.50;;;4.73;100.00
47815;BME280;33579;50.058;18.130;2024-03-06T04:34:29;99513.66;;;4.77;100.00
47815;BME280;33579;50.058;18.130;2024-03-06T04:35:31;99507.41;;;4.80;100.00
47815;BME280;33579;50.058;18.130;2024-03-06T04:36:33;99510.88;;;4.81;100.00
47815;BME280;33579;50.058;18.130;2024-03-06T04:37:35;99512.47;;;4.83;100.00
47815;BME280;33579;50.058;18.130;2024-03-06T04:38:37;99514.88;;;4.86;100.00
47815;BME280;33579;50.058;18.130;2024-03-06T04:39:38;99523.38;;;4.90;100.00
47815;BME280;33579;50.058;18.130;2024-03-06T04:40:40;99517.88;;;4.95;100.00
47815;BME280;33579;50.058;18.130;2024-03-06T04:41:42;99513.56;;;4.93;100.00
47815;BME280;33579;50.058;18.130;2024-03-06T04:42:47;99515.44;;;4.91;100.00
47815;BME280;33579;50.058;18.130;2024-03-06T04:43:48;99515.44;;;4.91;100.00
47815;BME280;33579;50.058;18.130;2024-03-06T04:44:50;99510.16;;;4.93;100.00
47815;BME280;33579;50.058;18.130;2024-03-06T04:45:52;99512.56;;;4.96;100.00
47815;BME280;33579;50.058;18.130;2024-03-06T04:46:54;99515.91;;;4.98;100.00
47815;BME280;33579;50.058;18.130;2024-03-06T04:47:56;99514.91;;;5.01;100.00
47815;BME280;33579;50.058;18.130;2024-03-06T04:48:57;99520.88;;;5.03;100.00
47815;BME280;33579;50.058;18.130;2024-03-06T04:49:59;99514.63;;;5.05;100.00
47815;BME280;33579;50.058;18.130;2024-03-06T04:51:01;99517.06;;;5.09;100.00
47815;BME280;33579;50.058;18.130;2024-03-06T04:52:03;99515.19;;;5.11;100.00
47815;BME280;33579;50.058;18.130;2024-03-06T04:53:04;99517.16;;;5.07;100.00
47815;BME280;33579;50.058;18.130;2024-03-06T04:54:06;99519.00;;;5.05;100.00
47815;BME280;33579;50.058;18.130;2024-03-06T04:55:08;99518.06;;;5.06;100.00
47815;BME280;33579;50.058;18.130;2024-03-06T04:56:10;99522.28;;;5.09;100.00
47815;BME280;33579;50.058;18.130;2024-03-06T04:57:12;99520.53;;;5.09;100.00
47815;BME280;33579;50.058;18.130;2024-03-06T04:58:14;99519.47;;;5.12;100.00
47815;BME280;33579;50.058;18.130;2024-03-06T04:59:15;99521.06;;;5.14;100.00
47815;BME280;33579;50.058;18.130;2024-03-06T05:00:17;99513.38;;;5.13;100.00
47815;BME280;33579;50.058;18.130;2024-03-06T05:01:19;99515.03;;;5.14;100.00
47815;BME280;33579;50.058;18.130;2024-03-06T05:02:22;99519.31;;;5.15;100.00
47815;BME280;33579;50.058;18.130;2024-03-06T05:03:24;99517.53;;;5.15;100.00
47815;BME280;33579;50.058;18.130;2024-03-06T05:04:43;99517.72;;;5.12;100.00
47815;BME280;33579;50.058;18.130;2024-03-06T05:06:02;99511.84;;;5.09;100.00
47815;BME280;33579;50.058;18.130;2024-03-06T05:07:21;99519.13;;;5.03;100.00
47815;BME280;33579;50.058;18.130;2024-03-06T05:08:41;99522.91;;;4.98;100.00
47815;BME280;33579;50.058;18.130;2024-03-06T05:10:00;99522.69;;;4.86;100.00
47815;BME280;33579;50.058;18.130;2024-03-06T05:11:20;99534.59;;;4.76;100.00
47815;BME280;33579;50.058;18.130;2024-03-06T05:12:39;99533.34;;;4.67;100.00
47815;BME280;33579;50.058;18.130;2024-03-06T05:14:01;99537.81;;;4.65;100.00
47815;BME280;33579;50.058;18.130;2024-03-06T05:15:20;99539.22;;;4.71;100.00
47815;BME280;33579;50.058;18.130;2024-03-06T05:16:39;99540.72;;;4.75;100.00
47815;BME280;33579;50.058;18.130;2024-03-06T05:17:58;99538.59;;;4.82;100.00
47815;BME280;33579;50.058;18.130;2024-03-06T05:19:18;99541.13;;;4.83;100.00
47815;BME280;33579;50.058;18.130;2024-03-06T05:20:37;99544.34;;;4.72;100.00
47815;BME280;33579;50.058;18.130;2024-03-06T05:21:56;99547.56;;;4.61;100.00
47815;BME280;33579;50.058;18.130;2024-03-06T05:23:15;99547.06;;;4.55;100.00
47815;BME280;33579;50.058;18.130;2024-03-06T05:24:35;99547.66;;;4.44;100.00
47815;BME280;33579;50.058;18.130;2024-03-06T05:25:54;99553.78;;;4.43;100.00
47815;BME280;33579;50.058;18.130;2024-03-06T05:27:13;99547.75;;;4.42;100.00
47815;BME280;33579;50.058;18.130;2024-03-06T05:28:32;99544.06;;;4.46;100.00
47815;BME280;33579;50.058;18.130;2024-03-06T05:29:52;99539.94;;;4.42;100.00